Time;durP1;ratioP1;P1;durP2;ratioP2;P2;SDS_P1;SDS_P2;PMS_P1;PMS_P2;Temp;Humidity;BMP_temperature;BMP_pressure;BME280_temperature;BME280_humidity;BME280_pressure;Samples;Min_cycle;Max_cycle;Signal;HPM_P1;HPM_P2
2022/06/06 00:00:46;;;;;;;9.35;8.45;;;20.90;99.90;;;;;;5112238;28;20574;-53
2022/06/06 00:03:30;;;;;;;9.50;7.75;;;21.00;99.90;;;;;;5112907;28;20090;-50
2022/06/06 00:06:19;;;;;;;8.88;8.07;;;20.90;99.90;;;;;;5112476;28;20042;-51
2022/06/06 00:09:04;;;;;;;8.40;7.60;;;20.80;99.90;;;;;;5111134;28;20407;-50
2022/06/06 00:11:49;;;;;;;8.50;7.70;;;20.70;99.90;;;;;;5111759;28;20047;-52
2022/06/06 00:14:34;;;;;;;8.20;7.47;;;20.70;99.90;;;;;;5112911;28;20035;-52
2022/06/06 00:17:18;;;;;;;8.02;7.07;;;20.70;99.90;;;;;;5114888;28;20122;-52
2022/06/06 00:20:03;;;;;;;8.00;7.20;;;20.70;99.90;;;;;;5116071;28;20441;-54
2022/06/06 00:22:48;;;;;;;8.00;6.95;;;20.60;99.90;;;;;;5115140;28;20596;-51
2022/06/06 00:25:33;;;;;;;8.13;7.30;;;20.70;99.90;;;;;;5115652;28;20062;-52
2022/06/06 00:28:18;;;;;;;8.13;6.15;;;20.60;99.90;;;;;;5116347;28;20039;-51
2022/06/06 00:34:48;;;;;;;8.63;7.82;;;20.60;99.90;;;;;;5115028;28;20411;-52
2022/06/06 00:37:13;;;;;;;9.55;6.97;;;20.70;99.90;;;;;;5114974;28;20720;-51
2022/06/06 00:39:59;;;;;;;7.38;6.68;;;20.60;99.90;;;;;;5115786;28;20039;-52
2022/06/06 00:42:43;;;;;;;7.40;6.38;;;20.60;99.90;;;;;;5116011;28;20039;-51
2022/06/06 00:45:34;;;;;;;7.03;6.38;;;20.50;99.90;;;;;;5115765;28;20039;-50
2022/06/06 00:48:42;;;;;;;7.57;6.53;;;20.50;99.90;;;;;;5117443;28;20111;-53
2022/06/06 00:51:26;;;;;;;6.72;5.38;;;20.50;99.90;;;;;;5116428;28;20086;-50
2022/06/06 00:54:10;;;;;;;6.35;5.80;;;20.50;99.90;;;;;;5119122;28;20043;-55
2022/06/06 00:57:05;;;;;;;6.47;5.43;;;20.50;99.90;;;;;;5118635;28;20163;-52
2022/06/06 00:59:49;;;;;;;6.55;5.95;;;20.40;99.90;;;;;;5117968;28;20023;-50
2022/06/06 01:02:35;;;;;;;5.82;5.28;;;20.40;99.90;;;;;;5116712;28;20454;-56
2022/06/06 01:05:21;;;;;;;5.47;4.97;;;20.40;99.90;;;;;;5114633;28;20026;-51
2022/06/06 01:08:07;;;;;;;5.90;5.38;;;20.40;99.90;;;;;;5115677;28;20505;-50
2022/06/06 01:10:51;;;;;;;5.63;5.13;;;20.40;99.90;;;;;;5115340;28;20034;-50
2022/06/06 01:13:38;;;;;;;8.00;5.82;;;20.10;99.90;;;;;;5115357;28;20090;-50
2022/06/06 01:16:30;;;;;;;5.40;4.80;;;20.10;99.90;;;;;;5114082;28;20490;-48
2022/06/06 01:19:20;;;;;;;5.63;4.82;;;20.10;99.90;;;;;;5114429;28;20146;-53
2022/06/06 01:22:12;;;;;;;6.05;4.93;;;20.20;99.90;;;;;;5114749;28;20043;-55
2022/06/06 01:25:34;;;;;;;5.43;4.85;;;20.20;99.90;;;;;;5114674;28;20027;-56
2022/06/06 01:28:20;;;;;;;5.85;5.25;;;20.10;99.90;;;;;;5114689;28;20038;-50
2022/06/06 01:31:11;;;;;;;5.40;4.90;;;20.10;99.90;;;;;;5115947;27;20500;-55
2022/06/06 01:33:58;;;;;;;5.63;5.10;;;20.10;99.90;;;;;;5134757;27;20076;-52
2022/06/06 01:36:50;;;;;;;6.15;5.10;;;20.10;99.90;;;;;;5134544;27;20131;-49
2022/06/06 01:39:35;;;;;;;5.82;5.25;;;20.00;99.90;;;;;;5134948;27;20056;-48
2022/06/06 01:42:34;;;;;;;5.63;5.03;;;19.70;99.90;;;;;;5131213;27;20090;-53
2022/06/06 01:45:38;;;;;;;5.75;5.18;;;19.60;99.90;;;;;;5134299;27;20042;-53
2022/06/06 01:48:26;;;;;;;4.72;4.32;;;19.60;99.90;;;;;;5135280;27;20454;-55
2022/06/06 01:51:16;;;;;;;5.18;4.50;;;19.60;99.90;;;;;;5134960;27;20069;-49
2022/06/06 01:54:00;;;;;;;5.47;4.97;;;19.70;99.90;;;;;;5119429;27;20524;-54
2022/06/06 01:56:45;;;;;;;5.22;4.50;;;19.70;99.90;;;;;;5134090;27;20099;-53
2022/06/06 01:59:30;;;;;;;5.15;4.65;;;19.60;99.90;;;;;;5135723;27;20038;-51
2022/06/06 02:02:15;;;;;;;6.72;4.53;;;19.60;99.90;;;;;;5135904;27;20045;-52
2022/06/06 02:05:00;;;;;;;5.90;4.82;;;19.60;99.90;;;;;;5135099;27;20038;-50
2022/06/06 02:07:45;;;;;;;5.43;4.60;;;19.60;99.90;;;;;;5134425;27;20046;-54
2022/06/06 02:10:29;;;;;;;4.63;4.22;;;19.50;99.90;;;;;;5134861;27;20123;-53
2022/06/06 02:13:14;;;;;;;4.82;4.40;;;19.50;99.90;;;;;;5134678;27;20406;-54
2022/06/06 02:15:58;;;;;;;5.65;5.05;;;19.60;99.90;;;;;;5134163;27;20039;-56
2022/06/06 02:18:43;;;;;;;4.95;4.45;;;19.60;99.90;;;;;;5133958;27;20541;-49
2022/06/06 02:21:27;;;;;;;5.00;4.10;;;19.50;99.90;;;;;;5133823;27;20077;-54
2022/06/06 02:24:11;;;;;;;5.15;4.70;;;19.50;99.90;;;;;;5134869;27;20030;-54
2022/06/06 02:26:56;;;;;;;4.75;4.35;;;19.40;99.90;;;;;;5135018;27;20494;-50
2022/06/06 02:29:41;;;;;;;5.78;4.72;;;19.40;99.90;;;;;;5134736;27;20030;-49
2022/06/06 02:32:25;;;;;;;5.20;4.70;;;19.50;99.90;;;;;;5116122;27;20047;-56
2022/06/06 02:35:13;;;;;;;4.60;4.20;;;19.50;99.90;;;;;;5098727;28;20035;-55
2022/06/06 02:37:58;;;;;;;5.57;4.50;;;19.50;99.90;;;;;;5113634;28;20042;-56
2022/06/06 02:40:44;;;;;;;5.80;4.20;;;19.50;99.90;;;;;;5113001;28;20513;-53
2022/06/06 02:43:29;;;;;;;5.25;4.30;;;19.40;99.90;;;;;;5104197;28;20035;-50
2022/06/06 02:46:14;;;;;;;6.32;4.93;;;19.30;99.90;;;;;;5113468;28;20026;-55
2022/06/06 02:48:58;;;;;;;5.32;4.60;;;19.30;99.90;;;;;;5113499;28;20066;-52
2022/06/06 02:51:42;;;;;;;5.80;4.57;;;19.20;99.90;;;;;;5114096;28;20042;-52
2022/06/06 02:54:27;;;;;;;4.82;4.40;;;19.20;99.90;;;;;;5113751;28;20041;-54
2022/06/06 02:57:11;;;;;;;4.53;4.00;;;19.30;99.90;;;;;;5113590;28;20034;-54
2022/06/06 02:59:57;;;;;;;6.15;4.65;;;19.30;99.90;;;;;;5114153;28;20476;-48
2022/06/06 03:02:41;;;;;;;5.68;5.07;;;19.30;99.90;;;;;;5114516;28;20042;-50
2022/06/06 03:05:51;;;;;;;5.95;4.63;;;19.00;99.90;;;;;;5113402;28;20055;-58
2022/06/06 03:08:44;;;;;;;4.90;4.40;;;19.10;99.90;;;;;;5113979;28;20117;-48
2022/06/06 03:11:28;;;;;;;5.55;5.03;;;19.10;99.90;;;;;;5113173;28;20505;-50
2022/06/06 03:14:45;;;;;;;5.03;4.53;;;18.90;99.90;;;;;;5113827;28;20111;-49
2022/06/06 03:20:48;;;;;;;5.93;4.25;;;18.90;99.90;;;;;;5113637;28;20067;-51
2022/06/06 03:24:01;;;;;;;5.72;4.80;;;18.90;99.90;;;;;;5113633;28;20027;-53
2022/06/06 03:26:51;;;;;;;4.82;4.32;;;18.90;99.90;;;;;;5111768;28;20031;-56
2022/06/06 03:29:59;;;;;;;5.80;4.60;;;19.00;99.90;;;;;;5113448;28;20027;-56
2022/06/06 03:33:06;;;;;;;4.72;4.30;;;19.00;99.90;;;;;;5109776;28;20023;-57
2022/06/06 03:35:59;;;;;;;4.75;4.25;;;19.00;99.90;;;;;;5097131;28;20386;-51
2022/06/06 03:38:59;;;;;;;5.20;4.20;;;19.00;99.90;;;;;;5113083;28;20022;-53
2022/06/06 03:42:04;;;;;;;5.45;4.50;;;19.00;99.90;;;;;;5112291;28;20088;-49
2022/06/06 03:45:02;;;;;;;4.30;3.90;;;19.00;99.90;;;;;;5092976;28;20055;-53
2022/06/06 03:48:23;;;;;;;5.50;3.97;;;18.90;99.90;;;;;;5092799;28;20554;-54
2022/06/06 03:51:13;;;;;;;5.38;4.63;;;18.90;99.90;;;;;;5094188;28;20510;-53
2022/06/06 03:54:23;;;;;;;5.03;4.53;;;18.70;99.90;;;;;;5097618;28;20031;-53
2022/06/06 03:57:17;;;;;;;4.30;3.85;;;18.70;99.90;;;;;;5096304;28;20059;-52
2022/06/06 04:00:07;;;;;;;5.50;4.43;;;18.70;99.90;;;;;;5096706;28;20039;-53
2022/06/06 04:02:54;;;;;;;5.32;4.50;;;18.60;99.90;;;;;;5096848;28;20031;-51
2022/06/06 04:05:39;;;;;;;4.45;4.05;;;18.50;99.90;;;;;;5097205;28;20154;-55
2022/06/06 04:08:24;;;;;;;4.93;4.50;;;18.50;99.90;;;;;;5096804;28;20157;-48
2022/06/06 04:11:30;;;;;;;5.10;4.60;;;18.50;99.90;;;;;;5096818;28;20035;-52
2022/06/06 04:14:32;;;;;;;5.10;4.35;;;18.60;99.90;;;;;;5096537;28;20043;-48
2022/06/06 04:17:36;;;;;;;4.97;4.35;;;18.60;99.90;;;;;;5095426;28;20035;-52
2022/06/06 04:20:23;;;;;;;4.85;4.35;;;18.70;99.90;;;;;;5097115;28;20046;-51
2022/06/06 04:23:35;;;;;;;6.47;5.25;;;18.70;99.90;;;;;;5081544;28;20040;-57
2022/06/06 04:26:27;;;;;;;5.60;4.85;;;18.70;99.90;;;;;;5095569;28;20475;-54
2022/06/06 04:29:40;;;;;;;5.07;4.57;;;18.70;99.90;;;;;;5080274;28;20031;-57
2022/06/06 04:32:33;;;;;;;5.47;4.63;;;18.70;99.90;;;;;;5109038;28;20038;-53
2022/06/06 04:35:37;;;;;;;4.85;4.35;;;18.80;99.90;;;;;;5115491;28;20043;-53
2022/06/06 04:38:21;;;;;;;4.78;4.15;;;18.90;99.90;;;;;;5116019;28;20031;-51
2022/06/06 04:41:41;;;;;;;5.18;4.10;;;18.90;99.90;;;;;;5116393;28;20180;-52
2022/06/06 04:44:31;;;;;;;4.95;4.45;;;19.10;99.90;;;;;;5091460;28;20077;-53
2022/06/06 04:47:20;;;;;;;6.07;4.50;;;19.10;99.90;;;;;;5115139;28;20026;-50
2022/06/06 04:50:13;;;;;;;5.32;4.22;;;19.10;99.90;;;;;;5115725;28;20027;-47
2022/06/06 04:53:03;;;;;;;4.72;4.32;;;19.20;99.90;;;;;;5117251;28;20397;-53
2022/06/06 04:55:50;;;;;;;5.18;4.32;;;19.20;99.90;;;;;;5115233;28;20039;-52
2022/06/06 04:58:37;;;;;;;6.30;3.95;;;19.20;99.90;;;;;;5115818;28;20094;-57
2022/06/06 05:01:23;;;;;;;4.40;4.00;;;19.20;99.90;;;;;;5115018;28;20389;-51
2022/06/06 05:04:08;;;;;;;4.18;3.78;;;19.20;99.90;;;;;;5114550;28;20074;-51
2022/06/06 05:07:09;;;;;;;5.00;3.80;;;19.20;99.90;;;;;;5114924;28;20031;-51
2022/06/06 05:10:11;;;;;;;6.07;3.83;;;19.20;99.90;;;;;;5114865;28;20026;-55
2022/06/06 05:13:20;;;;;;;4.53;3.83;;;19.20;99.90;;;;;;5115658;28;20023;-52
2022/06/06 05:16:20;;;;;;;6.10;3.88;;;19.10;99.90;;;;;;5115130;28;20062;-52
2022/06/06 05:19:32;;;;;;;5.10;3.90;;;19.20;99.90;;;;;;5115562;28;20030;-49
2022/06/06 05:22:42;;;;;;;3.80;3.38;;;19.30;99.90;;;;;;5116523;28;20034;-52
2022/06/06 05:25:38;;;;;;;6.90;4.07;;;19.40;99.90;;;;;;5099583;28;20885;-56
2022/06/06 05:28:41;;;;;;;3.78;3.33;;;19.40;99.90;;;;;;5114785;28;20034;-56
2022/06/06 05:31:41;;;;;;;4.47;3.63;;;19.50;99.90;;;;;;5120805;27;20038;-51
2022/06/06 05:34:33;;;;;;;4.20;3.60;;;19.60;99.90;;;;;;5129738;27;20057;-53
2022/06/06 05:37:40;;;;;;;4.20;3.53;;;19.60;99.90;;;;;;5134674;27;20373;-50
2022/06/06 05:40:27;;;;;;;4.15;3.40;;;19.60;99.90;;;;;;5095533;27;20109;-50
2022/06/06 05:43:34;;;;;;;4.15;3.75;;;19.70;99.90;;;;;;5125177;27;20386;-49
2022/06/06 05:46:40;;;;;;;4.05;3.63;;;19.90;99.90;;;;;;5115293;28;20030;-51
2022/06/06 05:49:42;;;;;;;10.13;8.80;;;20.00;99.90;;;;;;5115071;28;20541;-54
2022/06/06 05:52:55;;;;;;;4.10;3.70;;;20.30;99.70;;;;;;5116756;28;20070;-54
2022/06/06 05:56:03;;;;;;;3.72;3.40;;;20.20;99.10;;;;;;5116372;28;20027;-56
2022/06/06 05:59:10;;;;;;;4.07;3.67;;;20.20;99.40;;;;;;5115029;28;20113;-51
2022/06/06 06:02:00;;;;;;;4.32;3.65;;;20.10;99.60;;;;;;5114641;28;20050;-49
2022/06/06 06:04:48;;;;;;;5.45;4.15;;;20.00;99.50;;;;;;5115481;28;20521;-50
2022/06/06 06:07:42;;;;;;;4.50;3.80;;;20.00;99.70;;;;;;5114559;28;20050;-50
2022/06/06 06:10:43;;;;;;;4.35;3.35;;;20.10;99.80;;;;;;5114128;28;20034;-48
2022/06/06 06:13:36;;;;;;;6.55;3.92;;;20.20;99.50;;;;;;5113593;28;20043;-49
2022/06/06 06:16:25;;;;;;;4.85;4.00;;;20.20;99.70;;;;;;5113261;28;20150;-52
2022/06/06 06:19:16;;;;;;;5.88;4.55;;;20.30;99.50;;;;;;5113542;28;20608;-54
2022/06/06 06:22:03;;;;;;;4.45;3.83;;;20.10;99.40;;;;;;5113025;28;20026;-52
2022/06/06 06:24:50;;;;;;;5.57;3.67;;;20.10;99.80;;;;;;5113710;28;20162;-53
2022/06/06 06:27:36;;;;;;;4.40;4.00;;;20.30;99.50;;;;;;5113364;28;20035;-56
2022/06/06 06:30:20;;;;;;;6.43;3.80;;;20.40;99.10;;;;;;5113187;28;20055;-57
2022/06/06 06:33:18;;;;;;;5.78;3.83;;;20.60;98.80;;;;;;5122607;27;20134;-55
2022/06/06 06:36:13;;;;;;;4.03;3.63;;;20.60;98.90;;;;;;5113590;28;20089;-52
2022/06/06 06:39:23;;;;;;;5.00;4.15;;;20.70;98.80;;;;;;5114201;28;20398;-53
2022/06/06 06:42:10;;;;;;;4.28;3.88;;;20.60;98.90;;;;;;5114025;28;20035;-51
2022/06/06 06:45:02;;;;;;;4.22;3.55;;;20.80;98.50;;;;;;5113731;28;20078;-50
2022/06/06 06:47:58;;;;;;;4.28;3.88;;;20.80;98.20;;;;;;5112315;28;20027;-52
2022/06/06 06:51:04;;;;;;;6.35;4.07;;;20.80;98.20;;;;;;5114483;28;20030;-49
2022/06/06 06:54:00;;;;;;;4.07;3.67;;;20.80;98.10;;;;;;5112759;28;20081;-52
2022/06/06 06:57:01;;;;;;;5.13;4.07;;;20.80;98.10;;;;;;5114168;28;20151;-53
2022/06/06 07:00:04;;;;;;;5.53;4.25;;;21.00;97.70;;;;;;5113926;28;20097;-56
2022/06/06 07:09:53;;;;;;;5.93;4.20;;;21.00;97.50;;;;;;5113326;28;20034;-54
2022/06/06 07:12:49;;;;;;;4.20;3.80;;;21.20;97.20;;;;;;5113543;28;20082;-49
2022/06/06 07:15:46;;;;;;;6.28;4.25;;;20.90;97.20;;;;;;5113037;28;20054;-51
2022/06/06 07:18:32;;;;;;;6.47;4.35;;;20.90;97.60;;;;;;5113209;28;20027;-52
2022/06/06 07:21:17;;;;;;;6.35;4.85;;;21.00;97.50;;;;;;5113197;28;20411;-54
2022/06/06 07:24:10;;;;;;;6.97;4.47;;;21.20;97.50;;;;;;5113694;28;20038;-51
2022/06/06 07:26:56;;;;;;;5.47;4.20;;;21.30;97.30;;;;;;5114739;28;20039;-51
2022/06/06 07:29:40;;;;;;;5.35;4.35;;;21.40;96.90;;;;;;5116921;28;20034;-53
2022/06/06 07:32:40;;;;;;;6.28;4.55;;;21.60;96.40;;;;;;5125356;27;20046;-54
2022/06/06 07:36:10;;;;;;;7.65;4.30;;;21.50;96.20;;;;;;5138024;27;20317;-53
2022/06/06 07:39:03;;;;;;;4.90;4.40;;;21.50;96.50;;;;;;5137968;27;20116;-53
2022/06/06 07:42:17;;;;;;;5.00;4.53;;;21.50;96.30;;;;;;5137779;27;20031;-51
2022/06/06 07:45:43;;;;;;;5.20;4.25;;;21.40;96.10;;;;;;5097168;28;20027;-52
2022/06/06 07:48:42;;;;;;;5.80;4.40;;;21.30;96.40;;;;;;5053957;28;20412;-53
2022/06/06 07:51:35;;;;;;;4.60;4.20;;;21.30;96.40;;;;;;5096690;28;20039;-49
2022/06/06 07:54:25;;;;;;;5.18;4.10;;;21.50;96.60;;;;;;5080770;28;20039;-54
2022/06/06 07:57:25;;;;;;;4.97;4.47;;;21.60;96.30;;;;;;5099916;28;20180;-59
2022/06/06 08:00:18;;;;;;;6.25;4.20;;;21.40;95.70;;;;;;5100728;28;20114;-50
2022/06/06 08:03:13;;;;;;;6.68;4.40;;;21.40;96.20;;;;;;5098216;28;20027;-51
2022/06/06 08:06:16;;;;;;;4.85;4.07;;;21.50;95.90;;;;;;5096819;28;20112;-52
2022/06/06 08:09:01;;;;;;;5.10;3.90;;;21.80;95.30;;;;;;5096972;28;20450;-54
2022/06/06 08:12:03;;;;;;;;;;;21.70;95.10;;;;;;5096815;28;20062;-56
2022/06/06 08:15:21;;;;;;;6.63;4.45;;;21.70;95.30;;;;;;5095783;28;19911;-50
2022/06/06 08:18:36;;;;;;;5.32;3.95;;;21.90;94.90;;;;;;5081897;28;20035;-52
2022/06/06 08:21:27;;;;;;;4.93;4.40;;;22.10;95.10;;;;;;5096791;28;20031;-51
2022/06/06 08:24:29;;;;;;;4.88;4.13;;;22.10;94.80;;;;;;5083250;28;20102;-54
2022/06/06 08:27:19;;;;;;;4.68;4.22;;;21.70;94.60;;;;;;5098211;28;20505;-51
2022/06/06 08:30:04;;;;;;;6.05;4.03;;;21.60;94.50;;;;;;5100240;28;20074;-55
2022/06/06 08:32:49;;;;;;;5.10;3.90;;;21.70;94.40;;;;;;5128513;27;20042;-57
2022/06/06 08:35:47;;;;;;;5.20;3.88;;;21.90;94.20;;;;;;5104052;28;20636;-52
2022/06/06 08:38:51;;;;;;;4.22;3.83;;;22.10;93.80;;;;;;5116283;28;20062;-56
2022/06/06 08:42:01;;;;;;;4.28;3.88;;;22.10;93.30;;;;;;5118663;28;20070;-54
2022/06/06 08:45:06;;;;;;;5.88;4.35;;;22.10;93.00;;;;;;5098276;28;20043;-56
2022/06/06 08:48:13;;;;;;;5.70;4.57;;;22.10;92.90;;;;;;5082487;28;20079;-51
2022/06/06 08:51:04;;;;;;;7.13;4.40;;;22.10;93.10;;;;;;5096525;28;20051;-55
2022/06/06 08:54:13;;;;;;;6.95;4.13;;;22.40;93.00;;;;;;5097932;28;20039;-55
2022/06/06 08:57:09;;;;;;;6.93;3.78;;;22.50;92.70;;;;;;5098086;28;20069;-52
2022/06/06 09:00:10;;;;;;;4.10;3.58;;;22.60;92.60;;;;;;5098322;28;20034;-53
2022/06/06 09:03:22;;;;;;;8.00;4.60;;;22.60;92.60;;;;;;5098492;28;20031;-56
2022/06/06 09:06:36;;;;;;;6.32;4.25;;;22.80;92.40;;;;;;5096880;28;20031;-54
2022/06/06 09:10:14;;;;;;;5.00;3.70;;;22.70;92.70;;;;;;5097676;28;20077;-52
2022/06/06 09:13:35;;;;;;;4.18;3.75;;;23.00;92.80;;;;;;5097047;28;20024;-56
2022/06/06 09:16:57;;;;;;;4.78;3.97;;;23.00;93.10;;;;;;5096701;28;20035;-57
2022/06/06 09:20:17;;;;;;;4.53;3.90;;;23.00;93.00;;;;;;5097735;28;20502;-56
2022/06/06 09:23:26;;;;;;;5.55;3.72;;;23.00;92.30;;;;;;5096295;28;20031;-55
2022/06/06 09:26:28;;;;;;;4.18;3.58;;;22.90;90.90;;;;;;5093735;28;20074;-53
2022/06/06 09:29:51;;;;;;;5.72;4.22;;;22.80;91.20;;;;;;5094720;28;20034;-51
2022/06/06 09:32:35;;;;;;;6.43;4.10;;;22.70;91.70;;;;;;5125421;27;20069;-54
2022/06/06 09:35:41;;;;;;;5.75;4.13;;;22.90;91.80;;;;;;5093330;28;20054;-57
2022/06/06 09:38:31;;;;;;;4.10;3.70;;;23.40;91.50;;;;;;5094747;28;20082;-53
2022/06/06 09:41:38;;;;;;;7.15;3.75;;;23.60;91.30;;;;;;5094036;28;20506;-56
2022/06/06 09:44:40;;;;;;;4.30;3.55;;;23.50;90.30;;;;;;5098392;28;20458;-54
2022/06/06 09:47:28;;;;;;;7.05;4.00;;;23.80;89.60;;;;;;5113298;28;20054;-56
2022/06/06 09:50:40;;;;;;;5.50;3.90;;;23.90;90.00;;;;;;5113448;28;20067;-56
2022/06/06 09:53:39;;;;;;;4.18;3.38;;;23.50;90.00;;;;;;5113534;28;20084;-56
2022/06/06 09:59:57;;;;;;;5.28;3.33;;;23.70;87.00;;;;;;5112817;28;20122;-56
2022/06/06 10:02:59;;;;;;;3.45;3.05;;;23.70;87.60;;;;;;5114442;28;20509;-55
2022/06/06 10:06:15;;;;;;;7.07;3.63;;;23.70;87.80;;;;;;5098110;28;20031;-53
2022/06/06 10:09:18;;;;;;;;;;;23.80;86.60;;;;;;5114442;28;20034;-50
2022/06/06 10:12:32;;;;;;;4.82;3.60;;;23.60;88.40;;;;;;5097601;28;20350;-54
2022/06/06 10:15:28;;;;;;;5.65;4.13;;;23.40;89.60;;;;;;5113164;28;20086;-53
2022/06/06 10:18:27;;;;;;;6.18;3.83;;;23.10;90.30;;;;;;5114224;28;20070;-50
2022/06/06 10:21:47;;;;;;;4.57;3.78;;;23.40;90.10;;;;;;5114220;28;20027;-53
2022/06/06 10:25:09;;;;;;;6.90;4.32;;;23.80;88.60;;;;;;5113877;28;20026;-54
2022/06/06 10:28:35;;;;;;;11.73;5.65;;;23.70;89.50;;;;;;5114568;28;20708;-53
2022/06/06 10:31:25;;;;;;;4.65;3.78;;;23.80;89.30;;;;;;5092405;28;20051;-51
2022/06/06 10:34:33;;;;;;;5.15;3.67;;;23.80;88.70;;;;;;5117212;27;20026;-49
2022/06/06 10:37:44;;;;;;;5.82;3.85;;;24.30;88.20;;;;;;5133437;27;20114;-50
2022/06/06 10:40:47;;;;;;;4.72;3.47;;;24.20;87.60;;;;;;5101950;27;20072;-50
2022/06/06 10:43:38;;;;;;;4.43;3.50;;;24.30;86.50;;;;;;5113145;28;20047;-49
2022/06/06 10:46:34;;;;;;;4.97;3.80;;;24.20;85.50;;;;;;5113328;28;20050;-51
2022/06/06 10:49:47;;;;;;;4.78;3.83;;;23.80;86.20;;;;;;5114684;28;20112;-51
2022/06/06 10:52:46;;;;;;;5.60;3.47;;;23.60;86.30;;;;;;5113415;28;20046;-51
2022/06/06 10:55:43;;;;;;;3.90;3.53;;;23.60;86.90;;;;;;5113529;28;20394;-55
2022/06/06 10:59:05;;;;;;;3.88;3.53;;;23.60;86.30;;;;;;5113259;28;20078;-52
2022/06/06 11:02:01;;;;;;;5.20;3.65;;;23.60;87.10;;;;;;5112604;28;20062;-51
2022/06/06 11:04:49;;;;;;;5.20;3.97;;;23.60;87.70;;;;;;5113204;28;20031;-53
2022/06/06 11:07:54;;;;;;;7.22;3.72;;;23.60;86.70;;;;;;5113227;28;20050;-56
2022/06/06 11:11:11;;;;;;;4.03;3.45;;;23.60;86.00;;;;;;5113341;28;20027;-52
2022/06/06 11:14:30;;;;;;;4.90;3.40;;;23.90;84.50;;;;;;5113339;28;20038;-54
2022/06/06 11:17:41;;;;;;;4.30;3.53;;;23.80;83.80;;;;;;5112930;28;20395;-53
2022/06/06 11:20:47;;;;;;;4.45;3.33;;;24.30;82.70;;;;;;5114365;28;20026;-53
2022/06/06 11:23:37;;;;;;;5.63;3.45;;;24.30;81.50;;;;;;5114634;28;20603;-56
2022/06/06 11:26:27;;;;;;;3.78;3.15;;;24.10;82.30;;;;;;5117057;28;20065;-57
2022/06/06 11:29:33;;;;;;;3.65;3.05;;;24.30;81.90;;;;;;5118586;28;20077;-56
2022/06/06 11:32:37;;;;;;;4.70;3.47;;;24.30;79.20;;;;;;5124494;28;20030;-54
2022/06/06 11:35:30;;;;;;;3.42;2.92;;;24.30;80.40;;;;;;5113486;28;20035;-52
2022/06/06 11:38:52;;;;;;;4.28;3.45;;;24.10;78.90;;;;;;5112754;28;20039;-54
2022/06/06 11:42:14;;;;;;;4.03;3.17;;;24.00;80.80;;;;;;5113162;28;20066;-57
2022/06/06 11:45:23;;;;;;;3.45;3.15;;;24.10;80.40;;;;;;5113781;28;20074;-55
2022/06/06 11:48:36;;;;;;;4.63;3.47;;;24.50;79.70;;;;;;5112917;28;20027;-51
2022/06/06 11:51:26;;;;;;;3.65;3.28;;;24.70;78.50;;;;;;5113720;28;20105;-52
2022/06/06 11:54:41;;;;;;;3.90;2.95;;;24.60;78.00;;;;;;5114354;28;20101;-57
2022/06/06 11:57:44;;;;;;;;;;;24.40;77.10;;;;;;5113229;28;20035;-51
2022/06/06 12:00:56;;;;;;;4.88;3.08;;;24.30;78.30;;;;;;5111231;28;19918;-53
2022/06/06 12:04:18;;;;;;;5.82;3.50;;;24.80;78.30;;;;;;5111841;28;20035;-50
2022/06/06 12:07:21;;;;;;;3.95;3.30;;;25.20;78.40;;;;;;5111905;28;20497;-53
2022/06/06 12:10:14;;;;;;;3.75;3.33;;;25.40;77.00;;;;;;5113235;28;20050;-50
2022/06/06 12:13:08;;;;;;;5.43;3.47;;;25.50;76.90;;;;;;5115102;28;20497;-54
2022/06/06 12:16:18;;;;;;;4.75;3.10;;;25.70;76.30;;;;;;5116055;28;20115;-52
2022/06/06 12:19:12;;;;;;;4.15;3.30;;;25.50;76.20;;;;;;5115964;28;20112;-55
2022/06/06 12:22:05;;;;;;;4.70;3.30;;;25.60;75.20;;;;;;5115570;28;20566;-51
2022/06/06 12:25:08;;;;;;;4.10;3.20;;;25.40;75.20;;;;;;5115787;28;20030;-53
2022/06/06 12:28:20;;;;;;;4.97;3.28;;;25.30;75.40;;;;;;5115885;28;20074;-49
2022/06/06 12:31:11;;;;;;;4.50;3.00;;;25.10;75.30;;;;;;5111561;28;20166;-56
2022/06/06 12:34:28;;;;;;;4.53;3.35;;;24.70;77.30;;;;;;5117982;28;20105;-54
2022/06/06 12:37:33;;;;;;;4.50;3.70;;;24.60;77.10;;;;;;5116986;28;20035;-56
2022/06/06 12:40:31;;;;;;;4.25;3.55;;;24.40;77.70;;;;;;5116024;28;20058;-55
2022/06/06 12:43:29;;;;;;;3.65;3.08;;;24.10;78.60;;;;;;5115839;28;20058;-54
2022/06/06 12:46:32;;;;;;;3.95;3.00;;;24.00;77.50;;;;;;5114524;28;20402;-56
2022/06/06 12:49:26;;;;;;;3.90;3.38;;;23.90;77.60;;;;;;5115527;28;20073;-52
2022/06/06 12:52:10;;;;;;;3.40;3.00;;;23.70;78.20;;;;;;5115905;28;20111;-56
2022/06/06 12:58:40;;;;;;;4.72;3.47;;;23.50;79.20;;;;;;5115090;28;20035;-52
2022/06/06 13:01:45;;;;;;;5.20;3.53;;;23.50;78.50;;;;;;5115861;28;20107;-54
2022/06/06 13:04:52;;;;;;;4.78;3.58;;;23.40;79.50;;;;;;5114542;28;20103;-52
2022/06/06 13:07:57;;;;;;;4.38;3.50;;;23.30;79.70;;;;;;5113569;28;20058;-52
2022/06/06 13:11:03;;;;;;;4.78;3.95;;;23.30;79.70;;;;;;5115179;28;20410;-54
2022/06/06 13:14:14;;;;;;;3.83;3.42;;;23.20;80.00;;;;;;5114974;28;20034;-50
2022/06/06 13:17:16;;;;;;;5.05;3.75;;;23.10;80.60;;;;;;5113935;28;20509;-54
2022/06/06 13:20:16;;;;;;;7.50;3.60;;;23.10;81.20;;;;;;5114299;28;20062;-54
2022/06/06 13:23:37;;;;;;;4.63;3.70;;;22.80;81.50;;;;;;5115747;28;20086;-56
2022/06/06 13:26:47;;;;;;;6.38;3.97;;;22.80;83.20;;;;;;5114595;28;20035;-50
2022/06/06 13:29:35;;;;;;;5.15;3.78;;;22.30;86.50;;;;;;5114727;28;20047;-52
2022/06/06 13:32:28;;;;;;;7.03;4.30;;;21.60;89.60;;;;;;5128271;27;20113;-55
2022/06/06 13:35:21;;;;;;;8.50;4.20;;;21.30;90.90;;;;;;5134940;27;20120;-51
2022/06/06 13:38:43;;;;;;;7.25;3.88;;;20.90;91.60;;;;;;5135378;27;20037;-55
2022/06/06 13:41:37;;;;;;;5.78;3.90;;;20.80;91.70;;;;;;5135014;27;20076;-54
2022/06/06 13:44:51;;;;;;;5.07;3.55;;;20.40;92.00;;;;;;5114995;27;20030;-54
2022/06/06 13:48:25;;;;;;;4.50;3.88;;;20.10;92.10;;;;;;5113801;28;20034;-54
2022/06/06 13:51:41;;;;;;;4.28;3.47;;;20.10;92.50;;;;;;5113974;28;20546;-56
2022/06/06 13:54:26;;;;;;;5.05;3.72;;;20.10;93.10;;;;;;5114557;28;20058;-51
2022/06/06 13:57:26;;;;;;;5.57;3.97;;;20.20;93.60;;;;;;5113992;28;20169;-50
2022/06/06 14:00:22;;;;;;;6.18;4.60;;;20.20;94.00;;;;;;5114624;28;20031;-51
2022/06/06 14:03:12;;;;;;;8.40;6.53;;;20.00;94.60;;;;;;5114705;28;20034;-55
2022/06/06 14:06:31;;;;;;;5.85;4.32;;;20.10;94.90;;;;;;5113118;28;20081;-52
2022/06/06 14:09:16;;;;;;;5.05;4.13;;;20.20;94.70;;;;;;5112206;28;20035;-49
2022/06/06 14:12:13;;;;;;;4.60;3.80;;;20.20;95.30;;;;;;5113736;28;20455;-51
2022/06/06 14:15:09;;;;;;;4.78;3.80;;;20.30;95.10;;;;;;5113784;28;20499;-53
2022/06/06 14:18:07;;;;;;;5.82;3.95;;;20.10;95.90;;;;;;5112249;28;20070;-56
2022/06/06 14:20:56;;;;;;;4.97;3.50;;;20.00;95.40;;;;;;5112578;28;20053;-52
2022/06/06 14:23:43;;;;;;;4.13;3.72;;;20.00;94.70;;;;;;5112900;28;20038;-56
2022/06/06 14:26:27;;;;;;;3.97;3.38;;;20.10;94.80;;;;;;5111225;28;20034;-56
2022/06/06 14:29:24;;;;;;;3.72;3.33;;;20.10;94.50;;;;;;5113162;28;20038;-50
2022/06/06 14:32:25;;;;;;;5.82;4.10;;;20.10;94.20;;;;;;5121504;27;20042;-50
2022/06/06 14:35:16;;;;;;;4.60;3.67;;;20.40;94.40;;;;;;5092465;28;20031;-54
2022/06/06 14:38:15;;;;;;;4.15;3.75;;;20.60;93.80;;;;;;5092368;28;20074;-50
2022/06/06 14:41:05;;;;;;;7.47;6.13;;;21.00;93.80;;;;;;5091663;28;20034;-55
2022/06/06 14:44:03;;;;;;;6.25;4.72;;;21.30;93.50;;;;;;5122937;27;20033;-54
2022/06/06 14:46:53;;;;;;;6.25;5.15;;;21.70;93.10;;;;;;5133600;27;20036;-50
2022/06/06 14:49:42;;;;;;;5.93;5.22;;;22.00;92.20;;;;;;5134356;27;20069;-51
2022/06/06 14:52:27;;;;;;;6.00;5.05;;;22.30;91.90;;;;;;5123854;27;20042;-56
2022/06/06 14:55:11;;;;;;;;;;;22.50;92.00;;;;;;5124041;27;20034;-55
2022/06/06 14:57:56;;;;;;;18.77;15.38;;;22.60;92.50;;;;;;5136815;27;19918;-52
2022/06/06 15:01:02;;;;;;;13.05;9.85;;;22.70;92.50;;;;;;5132562;27;20079;-56
2022/06/06 15:03:49;;;;;;;22.33;16.42;;;22.70;92.20;;;;;;5133170;27;20088;-52
2022/06/06 15:06:57;;;;;;;8.57;7.20;;;22.70;91.90;;;;;;5133328;27;20064;-49
2022/06/06 15:09:58;;;;;;;4.57;4.18;;;22.80;91.10;;;;;;5133968;27;20030;-54
2022/06/06 15:12:42;;;;;;;5.55;3.70;;;22.70;90.80;;;;;;5133251;27;20098;-53
2022/06/06 15:15:29;;;;;;;4.13;3.30;;;22.60;90.70;;;;;;5133406;28;20046;-56
2022/06/06 15:18:34;;;;;;;4.75;3.83;;;22.60;91.00;;;;;;5117676;28;20070;-53
2022/06/06 15:21:18;;;;;;;4.53;3.90;;;22.60;91.60;;;;;;5133778;28;20461;-49
2022/06/06 15:24:12;;;;;;;5.22;4.43;;;22.70;91.10;;;;;;5133946;28;20034;-55
2022/06/06 15:27:28;;;;;;;6.17;5.57;;;23.00;91.10;;;;;;5117296;28;20034;-54
2022/06/06 15:30:15;;;;;;;;;;;23.40;90.60;;;;;;5131560;28;20244;-50
2022/06/06 15:33:33;;;;;;;5.00;4.45;;;24.00;90.50;;;;;;5113363;28;20007;-51
2022/06/06 15:36:33;;;;;;;6.18;3.90;;;25.00;86.70;;;;;;5085744;28;20038;-57
2022/06/06 15:39:23;;;;;;;6.03;3.90;;;25.30;85.20;;;;;;5113751;28;20038;-57
2022/06/06 15:42:35;;;;;;;4.20;3.40;;;25.40;83.70;;;;;;5111836;28;20107;-55
2022/06/06 15:45:32;;;;;;;3.78;3.40;;;25.40;83.20;;;;;;5112411;28;20067;-52